createdAt,value
2022-11-06T00:00:51.082Z,101468.09
2022-11-06T00:03:20.397Z,101467.83
2022-11-06T00:06:07.415Z,101464.98
2022-11-06T00:08:39.396Z,101452.81
2022-11-06T00:11:14.220Z,101449.61
2022-11-06T00:13:44.346Z,101452.38
2022-11-06T00:16:14.940Z,101451.53
2022-11-06T00:18:44.228Z,101438.16
2022-11-06T00:21:16.566Z,101439.97
2022-11-06T00:23:46.708Z,101443.58
2022-11-06T00:26:19.216Z,101440.95
2022-11-06T00:28:49.252Z,101443.60
2022-11-06T00:31:24.128Z,101438.09
2022-11-06T00:33:55.329Z,101434.73
2022-11-06T00:36:25.878Z,101430.20
2022-11-06T00:38:56.802Z,101436.91
2022-11-06T00:41:26.583Z,101427.75
2022-11-06T00:43:58.637Z,101428.20
2022-11-06T00:46:28.146Z,101421.52
2022-11-06T00:48:58.026Z,101414.78
2022-11-06T00:51:30.395Z,101416.09
2022-11-06T00:54:02.620Z,101412.19
2022-11-06T00:56:32.724Z,101410.38
2022-11-06T00:59:03.989Z,101413.73
2022-11-06T01:01:39.216Z,101421.87
2022-11-06T01:04:17.362Z,101425.94
2022-11-06T01:06:50.174Z,101419.86
2022-11-06T01:09:21.923Z,101416.61
2022-11-06T01:14:26.529Z,101418.99
2022-11-06T01:16:55.811Z,101425.08
2022-11-06T01:19:25.632Z,101425.70
2022-11-06T01:21:55.543Z,101421.62
2022-11-06T01:24:27.289Z,101418.99
2022-11-06T01:27:26.007Z,101418.66
2022-11-06T01:29:28.770Z,101418.59
2022-11-06T01:31:58.289Z,101417.05
2022-11-06T01:34:28.108Z,101415.00
2022-11-06T01:36:57.339Z,101409.50
2022-11-06T01:39:26.622Z,101402.65
2022-11-06T01:41:56.764Z,101409.84
2022-11-06T01:44:38.300Z,101415.22
2022-11-06T01:47:11.124Z,101418.92
2022-11-06T01:49:40.344Z,101416.42
2022-11-06T01:52:11.321Z,101409.96
2022-11-06T01:54:42.971Z,101410.66
2022-11-06T01:57:12.970Z,101416.02
2022-11-06T01:59:44.899Z,101409.61
2022-11-06T02:02:16.170Z,101400.73
2022-11-06T02:04:48.364Z,101400.24
2022-11-06T02:07:19.355Z,101392.86
2022-11-06T02:09:48.857Z,101387.14
2022-11-06T02:12:40.943Z,101381.25
2022-11-06T02:15:18.961Z,101365.13
2022-11-06T02:18:10.060Z,101371.09
2022-11-06T02:20:48.628Z,101372.79
2022-11-06T02:23:33.598Z,101373.77
2022-11-06T02:26:39.087Z,101377.71
2022-11-06T02:29:10.751Z,101379.27
2022-11-06T02:31:42.230Z,101369.48
2022-11-06T02:34:13.711Z,101359.70
2022-11-06T02:36:46.188Z,101368.29
2022-11-06T02:39:17.478Z,101365.20
2022-11-06T02:41:47.939Z,101362.50
2022-11-06T02:44:20.008Z,101370.62
2022-11-06T02:46:52.035Z,101369.81
2022-11-06T02:49:27.160Z,101354.95
2022-11-06T02:51:59.614Z,101350.19
2022-11-06T02:54:31.136Z,101354.73
2022-11-06T02:57:03.411Z,101362.89
2022-11-06T02:59:35.947Z,101366.84
2022-11-06T03:02:06.115Z,101353.10
2022-11-06T03:04:38.638Z,101364.95
2022-11-06T03:07:13.002Z,101365.17
2022-11-06T03:09:43.270Z,101351.05
2022-11-06T03:12:25.302Z,101342.23
2022-11-06T03:15:10.016Z,101341.53
2022-11-06T03:18:07.778Z,101334.45
2022-11-06T03:20:40.260Z,101318.69
2022-11-06T03:23:27.660Z,101332.20
2022-11-06T03:26:14.673Z,101338.42
2022-11-06T03:28:52.995Z,101332.20
2022-11-06T03:31:25.446Z,101331.97
2022-11-06T03:33:57.903Z,101333.62
2022-11-06T03:36:32.832Z,101333.02
2022-11-06T03:39:07.370Z,101328.83
2022-11-06T03:41:45.123Z,101318.07
2022-11-06T03:44:16.879Z,101316.98
2022-11-06T03:46:49.234Z,101319.27
2022-11-06T03:49:21.968Z,101310.41
2022-11-06T03:51:54.605Z,101298.67
2022-11-06T03:54:27.161Z,101291.16
2022-11-06T03:56:57.265Z,101291.98
2022-11-06T03:59:29.244Z,101288.03
2022-11-06T04:01:59.532Z,101284.20
2022-11-06T04:04:50.356Z,101279.79
2022-11-06T04:07:21.907Z,101284.09
2022-11-06T04:10:12.618Z,101286.72
2022-11-06T04:13:01.017Z,101287.19
2022-11-06T04:15:32.523Z,101283.12
2022-11-06T04:18:01.961Z,101283.86
2022-11-06T04:20:52.176Z,101277.86
2022-11-06T04:23:33.468Z,101279.65
2022-11-06T04:26:32.912Z,101271.02
2022-11-06T04:29:14.156Z,101268.27
2022-11-06T04:31:46.573Z,101263.36
2022-11-06T04:34:21.906Z,101258.83
2022-11-06T04:37:03.083Z,101249.85
2022-11-06T04:39:58.572Z,101256.20
2022-11-06T04:42:30.980Z,101254.62
2022-11-06T04:45:09.602Z,101250.94
2022-11-06T04:47:39.998Z,101242.31
2022-11-06T04:50:10.385Z,101250.20
2022-11-06T04:52:40.570Z,101239.09
2022-11-06T04:55:10.085Z,101239.91
2022-11-06T04:57:39.415Z,101232.98
2022-11-06T05:00:11.175Z,101227.84
2022-11-06T05:02:40.631Z,101222.20
2022-11-06T05:05:10.338Z,101223.16
2022-11-06T05:07:39.570Z,101224.95
2022-11-06T05:10:10.068Z,101219.09
2022-11-06T05:12:39.269Z,101214.30
2022-11-06T05:15:09.678Z,101218.11
2022-11-06T05:17:38.981Z,101221.82
2022-11-06T05:20:09.065Z,101224.57
2022-11-06T05:23:01.294Z,101223.87
2022-11-06T05:25:34.144Z,101213.70
2022-11-06T05:28:06.228Z,101218.14
2022-11-06T05:30:39.252Z,101207.38
2022-11-06T05:33:08.464Z,101210.71
2022-11-06T05:35:37.877Z,101209.28
2022-11-06T05:38:07.066Z,101215.86
2022-11-06T05:40:36.638Z,101210.71
2022-11-06T05:43:05.834Z,101213.70
2022-11-06T05:45:35.190Z,101201.16
2022-11-06T05:48:04.481Z,101206.16
2022-11-06T05:50:33.898Z,101199.70
2022-11-06T05:53:05.426Z,101201.12
2022-11-06T05:55:34.868Z,101194.93
2022-11-06T05:58:04.159Z,101189.91
2022-11-06T06:00:33.610Z,101184.03
2022-11-06T06:03:03.687Z,101179.85
2022-11-06T06:05:33.399Z,101176.28
2022-11-06T06:08:02.580Z,101180.93
2022-11-06T06:10:31.993Z,101168.01
2022-11-06T06:13:01.179Z,101167.28
2022-11-06T06:15:30.556Z,101166.09
2022-11-06T06:17:59.762Z,101164.06
2022-11-06T06:20:29.039Z,101166.59
2022-11-06T06:22:59.596Z,101169.69
2022-11-06T06:25:29.830Z,101165.97
2022-11-06T06:27:59.674Z,101167.66
2022-11-06T06:30:29.055Z,101176.73
2022-11-06T06:32:58.404Z,101176.14
2022-11-06T06:35:27.650Z,101179.47
2022-11-06T06:37:56.902Z,101174.22
2022-11-06T06:40:26.995Z,101163.43
2022-11-06T06:42:59.865Z,101157.23
2022-11-06T06:45:29.268Z,101156.27
2022-11-06T06:48:04.103Z,101160.59
2022-11-06T06:50:34.032Z,101149.34
2022-11-06T06:53:03.875Z,101145.28
2022-11-06T06:55:33.140Z,101145.55
2022-11-06T06:58:03.607Z,101138.12
2022-11-06T07:00:33.113Z,101134.64
2022-11-06T07:03:03.301Z,101143.50
2022-11-06T07:05:32.779Z,101137.03
2022-11-06T07:08:02.026Z,101135.84
2022-11-06T07:10:32.359Z,101137.75
2022-11-06T07:13:06.050Z,101137.52
2022-11-06T07:15:35.269Z,101125.33
2022-11-06T07:18:08.668Z,101123.77
2022-11-06T07:20:39.785Z,101129.39
2022-11-06T07:23:09.562Z,101122.11
2022-11-06T07:25:38.802Z,101119.95
2022-11-06T07:28:09.171Z,101118.52
2022-11-06T07:30:38.590Z,101128.56
2022-11-06T07:33:08.112Z,101136.56
2022-11-06T07:35:37.804Z,101137.88
2022-11-06T07:38:07.940Z,101132.50
2022-11-06T07:40:38.546Z,101127.48
2022-11-06T07:43:09.946Z,101122.45
2022-11-06T07:45:40.439Z,101120.55
2022-11-06T07:48:09.851Z,101123.77
2022-11-06T07:50:39.064Z,101123.66
2022-11-06T07:53:08.295Z,101113.85
2022-11-06T07:55:42.014Z,101115.88
2022-11-06T07:58:08.465Z,101112.19
2022-11-06T08:00:37.937Z,101113.12
2022-11-06T08:03:07.405Z,101108.34
2022-11-06T08:05:36.624Z,101103.44
2022-11-06T08:08:07.669Z,101102.50
2022-11-06T08:10:39.317Z,101093.63
2022-11-06T08:13:08.821Z,101103.33
2022-11-06T08:15:41.880Z,101101.87
2022-11-06T08:18:12.948Z,101099.58
2022-11-06T08:20:42.641Z,101099.83
2022-11-06T08:23:13.292Z,101092.62
2022-11-06T08:25:42.722Z,101086.87
2022-11-06T08:28:12.396Z,101080.85
2022-11-06T08:30:41.930Z,101074.58
2022-11-06T08:33:12.448Z,101065.53
2022-11-06T08:35:41.825Z,101075.32
2022-11-06T08:38:11.813Z,101072.73
2022-11-06T08:40:41.832Z,101078.41
2022-11-06T08:43:12.513Z,101069.42
2022-11-06T08:45:43.426Z,101063.81
2022-11-06T08:48:13.229Z,101063.66
2022-11-06T08:50:42.493Z,101060.05
2022-11-06T08:53:12.171Z,101042.06
2022-11-06T08:55:41.740Z,101039.73
2022-11-06T08:58:11.149Z,101043.49
2022-11-06T09:00:40.856Z,101042.44
2022-11-06T09:03:15.903Z,101048.43
2022-11-06T09:05:46.062Z,101041.30
2022-11-06T09:08:16.442Z,101030.53
2022-11-06T09:10:46.030Z,101026.70
2022-11-06T09:13:15.640Z,101027.37
2022-11-06T09:15:45.833Z,101023.72
2022-11-06T09:18:15.228Z,101023.82
2022-11-06T09:20:44.686Z,101028.89
2022-11-06T09:23:14.404Z,101026.61
2022-11-06T09:25:43.986Z,101024.74
2022-11-06T09:28:13.300Z,101023.87
2022-11-06T09:30:42.520Z,101023.47
2022-11-06T09:33:13.788Z,101020.69
2022-11-06T09:35:43.221Z,101026.28
2022-11-06T09:38:15.557Z,101035.39
2022-11-06T09:40:57.905Z,101030.58
2022-11-06T09:44:03.667Z,101023.91
2022-11-06T09:46:23.133Z,101030.14
2022-11-06T09:49:04.359Z,101029.34
2022-11-06T09:51:39.205Z,101023.08
2022-11-06T09:54:26.962Z,101019.53
2022-11-06T09:57:17.895Z,101012.86
2022-11-06T09:59:48.104Z,101009.71
2022-11-06T10:02:23.559Z,101004.24
2022-11-06T10:04:56.228Z,101001.19
2022-11-06T10:07:32.202Z,100986.70
2022-11-06T10:10:02.939Z,100984.53
2022-11-06T10:13:07.271Z,100988.50
2022-11-06T10:15:40.051Z,100980.19
2022-11-06T10:18:15.686Z,100983.02
2022-11-06T10:20:53.744Z,100985.04
2022-11-06T10:23:31.667Z,100987.17
2022-11-06T10:26:04.163Z,100973.98
2022-11-06T10:28:42.224Z,100969.91
2022-11-06T10:31:23.808Z,100965.50
2022-11-06T10:34:11.704Z,100962.23
2022-11-06T10:36:48.695Z,100956.73
2022-11-06T10:39:18.181Z,100958.19
2022-11-06T10:41:53.035Z,100952.09
2022-11-06T10:44:55.595Z,100954.06
2022-11-06T10:47:30.479Z,100948.03
2022-11-06T10:50:02.034Z,100930.09
2022-11-06T10:52:52.485Z,100934.28
2022-11-06T10:55:41.093Z,100934.80
2022-11-06T10:58:13.758Z,100921.45
2022-11-06T11:00:45.140Z,100922.72
2022-11-06T11:03:29.294Z,100929.15
2022-11-06T11:05:58.657Z,100921.97
2022-11-06T11:08:48.136Z,100918.02
2022-11-06T11:11:25.754Z,100912.45
2022-11-06T11:14:04.126Z,100912.17
2022-11-06T11:16:41.096Z,100909.81
2022-11-06T11:19:19.363Z,100905.80
2022-11-06T11:21:54.699Z,100902.89
2022-11-06T11:24:24.244Z,100896.02
2022-11-06T11:27:04.752Z,100893.66
2022-11-06T11:29:37.151Z,100893.12
2022-11-06T11:32:07.429Z,100906.33
2022-11-06T11:34:42.330Z,100898.19
2022-11-06T11:37:13.204Z,100887.85
2022-11-06T11:39:44.650Z,100891.33
2022-11-06T11:42:25.147Z,100882.64
2022-11-06T11:45:19.725Z,100878.09
2022-11-06T11:47:53.142Z,100873.84
2022-11-06T11:50:31.317Z,100868.30
2022-11-06T11:53:20.852Z,100862.12
2022-11-06T11:55:52.995Z,100869.05
2022-11-06T11:58:24.930Z,100853.30
2022-11-06T12:01:03.136Z,100847.87
2022-11-06T12:03:38.398Z,100837.73
2022-11-06T12:06:10.601Z,100833.98
2022-11-06T12:08:41.928Z,100820.75
2022-11-06T12:11:14.257Z,100822.27
2022-11-06T12:13:43.459Z,100816.25
2022-11-06T12:16:17.534Z,100815.61
2022-11-06T12:18:55.992Z,100810.81
2022-11-06T12:21:29.096Z,100806.86
2022-11-06T12:24:10.232Z,100800.49
2022-11-06T12:26:51.688Z,100794.66
2022-11-06T12:29:38.933Z,100797.24
2022-11-06T12:32:34.021Z,100800.92
2022-11-06T12:35:06.997Z,100803.89
2022-11-06T12:37:51.467Z,100795.98
2022-11-06T12:40:25.381Z,100765.28
2022-11-06T12:43:05.630Z,100786.24
2022-11-06T12:45:40.968Z,100791.81
2022-11-06T12:48:13.891Z,100789.22
2022-11-06T12:50:52.316Z,100786.96
2022-11-06T12:53:33.454Z,100789.77
2022-11-06T12:56:25.434Z,100788.91
2022-11-06T12:59:00.785Z,100779.98
2022-11-06T13:01:45.479Z,100777.75
2022-11-06T13:04:33.225Z,100778.67
2022-11-06T13:07:20.218Z,100778.49
2022-11-06T13:10:13.987Z,100776.52
2022-11-06T13:12:58.413Z,100775.67
2022-11-06T13:15:39.680Z,100780.06
2022-11-06T13:18:23.960Z,100778.54
2022-11-06T13:21:11.120Z,100773.16
2022-11-06T13:23:55.441Z,100774.16
2022-11-06T13:26:36.789Z,100767.30
2022-11-06T13:29:08.992Z,100763.02
2022-11-06T13:31:44.130Z,100769.85
2022-11-06T13:34:25.632Z,100763.98
2022-11-06T13:36:56.386Z,100760.22
2022-11-06T13:39:34.670Z,100760.34
2022-11-06T13:42:04.335Z,100760.35
2022-11-06T13:44:33.844Z,100760.14
2022-11-06T13:47:15.537Z,100760.52
2022-11-06T13:50:02.310Z,100756.20
2022-11-06T13:52:52.787Z,100760.64
2022-11-06T13:55:44.856Z,100753.52
2022-11-06T13:58:26.695Z,100748.98
2022-11-06T14:01:11.189Z,100741.35
2022-11-06T14:03:46.447Z,100743.52
2022-11-06T14:06:21.658Z,100748.90
2022-11-06T14:08:56.142Z,100752.03
2022-11-06T14:11:31.565Z,100750.84
2022-11-06T14:14:03.762Z,100752.88
2022-11-06T14:16:34.949Z,100743.67
2022-11-06T14:19:07.604Z,100739.61
2022-11-06T14:21:49.943Z,100735.32
2022-11-06T14:24:22.352Z,100733.29
2022-11-06T14:26:51.803Z,100718.27
2022-11-06T14:29:33.065Z,100704.07
2022-11-06T14:32:23.305Z,100699.91
2022-11-06T14:34:52.661Z,100703.16
2022-11-06T14:37:31.430Z,100696.12
2022-11-06T14:40:04.275Z,100699.22
2022-11-06T14:42:39.015Z,100691.70
2022-11-06T14:45:10.941Z,100689.80
2022-11-06T14:47:43.595Z,100683.01
2022-11-06T14:50:22.772Z,100680.16
2022-11-06T14:53:04.501Z,100678.62
2022-11-06T14:55:39.437Z,100674.92
2022-11-06T14:58:26.784Z,100667.05
2022-11-06T15:00:59.397Z,100664.21
2022-11-06T15:03:33.099Z,100655.27
2022-11-06T15:06:08.288Z,100653.23
2022-11-06T15:08:50.045Z,100649.78
2022-11-06T15:11:41.505Z,100645.72
2022-11-06T15:14:13.944Z,100638.20
2022-11-06T15:16:45.858Z,100635.70
2022-11-06T15:19:35.158Z,100629.75
2022-11-06T15:22:19.680Z,100625.83
2022-11-06T15:25:04.204Z,100629.39
2022-11-06T15:27:41.807Z,100618.80
2022-11-06T15:30:09.774Z,100617.38
2022-11-06T15:32:41.964Z,100610.68
2022-11-06T15:35:16.968Z,100594.35
2022-11-06T15:37:48.788Z,100604.84
2022-11-06T15:40:27.245Z,100595.91
2022-11-06T15:42:58.429Z,100585.55
2022-11-06T15:45:30.880Z,100585.42
2022-11-06T15:48:02.213Z,100574.69
2022-11-06T15:50:35.994Z,100577.30
2022-11-06T15:53:17.557Z,100568.72
2022-11-06T15:56:02.019Z,100572.44
2022-11-06T15:58:36.523Z,100554.17
2022-11-06T16:01:07.922Z,100553.83
2022-11-06T16:03:51.977Z,100552.28
2022-11-06T16:06:21.705Z,100543.60
2022-11-06T16:08:52.626Z,100546.22
2022-11-06T16:11:22.210Z,100535.60
2022-11-06T16:13:51.695Z,100537.03
2022-11-06T16:16:45.308Z,100542.86
2022-11-06T16:19:32.628Z,100530.59
2022-11-06T16:22:13.548Z,100530.38
2022-11-06T16:24:52.248Z,100522.38
2022-11-06T16:27:23.387Z,100515.82
2022-11-06T16:29:56.058Z,100513.09
2022-11-06T16:32:25.310Z,100498.80
2022-11-06T16:34:55.408Z,100521.31
2022-11-06T16:37:31.603Z,100515.70
2022-11-06T16:40:01.363Z,100523.20
2022-11-06T16:42:36.460Z,100535.47
2022-11-06T16:45:19.895Z,100517.12
2022-11-06T16:48:10.469Z,100527.50
2022-11-06T16:50:54.835Z,100531.08
2022-11-06T16:53:36.320Z,100533.20
2022-11-06T16:56:07.563Z,100535.23
2022-11-06T16:58:45.845Z,100521.06
2022-11-06T17:01:20.191Z,100534.39
2022-11-06T17:03:52.345Z,100532.02
2022-11-06T17:06:27.128Z,100546.69
2022-11-06T17:09:09.798Z,100547.62
2022-11-06T17:11:39.490Z,100538.83
2022-11-06T17:14:14.711Z,100544.76
2022-11-06T17:16:49.935Z,100531.31
2022-11-06T17:19:23.131Z,100534.39
2022-11-06T17:21:52.739Z,100534.66
2022-11-06T17:24:38.067Z,100531.31
2022-11-06T17:26:54.214Z,100540.83
2022-11-06T17:29:23.415Z,100540.59
2022-11-06T17:31:52.938Z,100549.77
2022-11-06T17:34:22.258Z,100547.62
2022-11-06T17:36:51.646Z,100545.50
2022-11-06T17:39:20.953Z,100545.39
2022-11-06T17:41:50.446Z,100548.36
2022-11-06T17:44:20.072Z,100544.19
2022-11-06T17:46:49.389Z,100544.53
2022-11-06T17:49:19.069Z,100544.91
2022-11-06T17:51:57.065Z,100550.50
2022-11-06T17:54:30.308Z,100544.05
2022-11-06T17:57:02.069Z,100543.81
2022-11-06T17:59:32.007Z,100536.91
2022-11-06T18:02:01.714Z,100533.58
2022-11-06T18:04:31.383Z,100522.73
2022-11-06T18:07:00.865Z,100534.06
2022-11-06T18:09:32.988Z,100530.95
2022-11-06T18:12:04.063Z,100526.89
2022-11-06T18:14:33.399Z,100535.23
2022-11-06T18:17:02.710Z,100535.34
2022-11-06T18:19:32.205Z,100542.73
2022-11-06T18:22:06.498Z,100536.54
2022-11-06T18:24:32.910Z,100534.88
2022-11-06T18:27:02.581Z,100524.27
2022-11-06T18:29:31.964Z,100523.78
2022-11-06T18:32:01.306Z,100513.39
2022-11-06T18:34:32.463Z,100518.39
2022-11-06T18:37:01.937Z,100521.73
2022-11-06T18:39:31.307Z,100513.14
2022-11-06T18:42:00.801Z,100521.48
2022-11-06T18:44:30.141Z,100524.80
2022-11-06T18:46:59.601Z,100524.39
2022-11-06T18:49:28.925Z,100513.30
2022-11-06T18:51:58.356Z,100521.05
2022-11-06T18:54:29.795Z,100526.42
2022-11-06T18:56:59.259Z,100530.11
2022-11-06T18:59:29.257Z,100517.58
2022-11-06T19:01:58.853Z,100519.36
2022-11-06T19:04:28.366Z,100530.08
2022-11-06T19:06:57.889Z,100524.83
2022-11-06T19:09:28.329Z,100527.55
2022-11-06T19:11:57.646Z,100526.82
2022-11-06T19:14:26.859Z,100517.38
2022-11-06T19:16:56.174Z,100519.75
2022-11-06T19:19:26.153Z,100517.94
2022-11-06T19:21:55.593Z,100520.93
2022-11-06T19:24:25.019Z,100514.63
2022-11-06T19:26:54.584Z,100523.90
2022-11-06T19:29:24.118Z,100515.05
2022-11-06T19:31:55.392Z,100526.09
2022-11-06T19:34:25.606Z,100526.30
2022-11-06T19:36:55.580Z,100529.64
2022-11-06T19:39:25.162Z,100543.97
2022-11-06T19:41:54.635Z,100560.31
2022-11-06T19:44:24.247Z,100555.52
2022-11-06T19:46:53.806Z,100557.77
2022-11-06T19:49:23.372Z,100559.28
2022-11-06T19:51:52.690Z,100559.63
2022-11-06T19:54:21.941Z,100565.25
2022-11-06T19:57:27.492Z,100562.45
2022-11-06T19:59:22.152Z,100561.88
2022-11-06T20:01:51.827Z,100551.45
2022-11-06T20:04:21.410Z,100553.92
2022-11-06T20:06:50.809Z,100556.10
2022-11-06T20:09:20.155Z,100562.86
2022-11-06T20:11:49.442Z,100554.73
2022-11-06T20:14:20.574Z,100572.25
2022-11-06T20:16:50.586Z,100568.31
2022-11-06T20:19:20.183Z,100565.84
2022-11-06T20:21:49.695Z,100565.97
2022-11-06T20:24:18.898Z,100561.36
2022-11-06T20:26:48.424Z,100553.71
2022-11-06T20:29:17.951Z,100552.27
2022-11-06T20:31:47.569Z,100547.95
2022-11-06T20:34:16.823Z,100546.41
2022-11-06T20:36:46.252Z,100578.30
2022-11-06T20:39:16.965Z,100565.48
2022-11-06T20:41:48.022Z,100576.98
2022-11-06T20:44:17.469Z,100574.52
2022-11-06T20:46:47.888Z,100578.56
2022-11-06T20:49:17.307Z,100584.95
2022-11-06T20:52:12.236Z,100596.78
2022-11-06T20:54:18.006Z,100592.23
2022-11-06T20:56:48.470Z,100603.20
2022-11-06T20:59:18.235Z,100592.23
2022-11-06T21:01:48.201Z,100602.41
2022-11-06T21:04:17.607Z,100605.38
2022-11-06T21:06:47.135Z,100613.61
2022-11-06T21:09:16.690Z,100607.54
2022-11-06T21:11:45.908Z,100617.02
2022-11-06T21:14:15.176Z,100618.61
2022-11-06T21:16:44.730Z,100625.50
2022-11-06T21:19:13.937Z,100633.13
2022-11-06T21:21:43.445Z,100635.62
2022-11-06T21:24:12.795Z,100633.44
2022-11-06T21:26:42.236Z,100634.30
2022-11-06T21:29:12.414Z,100627.42
2022-11-06T21:31:48.671Z,100637.48
2022-11-06T21:34:13.920Z,100631.30
2022-11-06T21:36:43.333Z,100636.80
2022-11-06T21:39:18.580Z,100642.07
2022-11-06T21:41:47.985Z,100651.48
2022-11-06T21:44:18.550Z,100650.48
2022-11-06T21:46:47.793Z,100651.79
2022-11-06T21:49:16.998Z,100652.57
2022-11-06T21:51:46.404Z,100648.22
2022-11-06T21:54:33.499Z,100645.52
2022-11-06T21:57:03.021Z,100654.02
2022-11-06T21:59:35.146Z,100638.83
2022-11-06T22:02:03.414Z,100650.27
2022-11-06T22:04:32.798Z,100651.05
2022-11-06T22:07:02.038Z,100641.56
2022-11-06T22:09:31.356Z,100643.77
2022-11-06T22:12:00.804Z,100653.81
2022-11-06T22:14:30.295Z,100662.45
2022-11-06T22:16:59.579Z,100656.48
2022-11-06T22:19:29.011Z,100662.59
2022-11-06T22:21:58.238Z,100659.48
2022-11-06T22:24:27.830Z,100661.84
2022-11-06T22:26:57.045Z,100656.34
2022-11-06T22:29:26.368Z,100667.75
2022-11-06T22:31:55.583Z,100656.59
2022-11-06T22:34:25.017Z,100655.53
2022-11-06T22:36:54.233Z,100662.93
2022-11-06T22:39:23.654Z,100660.43
2022-11-06T22:41:52.906Z,100668.91
2022-11-06T22:44:22.401Z,100676.66
2022-11-06T22:46:51.705Z,100677.41
2022-11-06T22:49:21.236Z,100679.23
2022-11-06T22:51:50.501Z,100690.67
2022-11-06T22:54:20.059Z,100677.78
2022-11-06T22:56:49.261Z,100685.78
2022-11-06T22:59:20.475Z,100687.44
2022-11-06T23:01:49.782Z,100690.07
2022-11-06T23:04:19.140Z,100690.17
2022-11-06T23:06:48.357Z,100694.63
2022-11-06T23:09:17.798Z,100691.66
2022-11-06T23:11:47.464Z,100701.92
2022-11-06T23:14:17.074Z,100706.58
2022-11-06T23:16:58.012Z,100704.02
2022-11-06T23:19:28.955Z,100704.35
2022-11-06T23:22:16.553Z,100702.09
2022-11-06T23:24:45.762Z,100711.10
2022-11-06T23:27:15.258Z,100707.36
2022-11-06T23:29:44.588Z,100712.45
2022-11-06T23:32:14.127Z,100715.59
2022-11-06T23:34:43.569Z,100712.42
2022-11-06T23:37:13.269Z,100712.63
2022-11-06T23:39:42.491Z,100711.47
2022-11-06T23:42:17.961Z,100722.38
2022-11-06T23:45:06.268Z,100727.54
2022-11-06T23:47:36.633Z,100731.63
2022-11-06T23:50:06.655Z,100725.31
2022-11-06T23:52:35.885Z,100730.10
2022-11-06T23:55:06.058Z,100729.11
2022-11-06T23:57:35.327Z,100736.88
